sensor_id;sensor_type;location;lat;lon;timestamp;pressure;altitude;pressure_sealevel;temperature;humidity
47530;BME280;33272;51.922;7.730;2023-07-16T00:01:56;147638.16;;;20.68;100.00
47530;BME280;33272;51.922;7.730;2023-07-16T00:04:23;147626.69;;;20.63;100.00
47530;BME280;33272;51.922;7.730;2023-07-16T00:06:50;147617.75;;;20.59;100.00
47530;BME280;33272;51.922;7.730;2023-07-16T00:09:17;147612.63;;;20.57;100.00
47530;BME280;33272;51.922;7.730;2023-07-16T00:11:44;147610.06;;;20.56;100.00
47530;BME280;33272;51.922;7.730;2023-07-16T00:14:13;147603.69;;;20.54;100.00
47530;BME280;33272;51.922;7.730;2023-07-16T00:16:40;147593.44;;;20.50;100.00
47530;BME280;33272;51.922;7.730;2023-07-16T00:19:07;147599.88;;;20.52;100.00
47530;BME280;33272;51.922;7.730;2023-07-16T00:21:34;147585.75;;;20.47;100.00
47530;BME280;33272;51.922;7.730;2023-07-16T00:24:01;147569.16;;;20.40;100.00
47530;BME280;33272;51.922;7.730;2023-07-16T00:26:28;147567.84;;;20.40;100.00
47530;BME280;33272;51.922;7.730;2023-07-16T00:28:55;147555.09;;;20.34;100.00
47530;BME280;33272;51.922;7.730;2023-07-16T00:31:23;147539.78;;;20.28;100.00
47530;BME280;33272;51.922;7.730;2023-07-16T00:33:50;147524.44;;;20.22;100.00
47530;BME280;33272;51.922;7.730;2023-07-16T00:36:17;147518.06;;;20.20;100.00
47530;BME280;33272;51.922;7.730;2023-07-16T00:38:44;147516.78;;;20.19;100.00
47530;BME280;33272;51.922;7.730;2023-07-16T00:41:13;147515.50;;;20.19;100.00
47530;BME280;33272;51.922;7.730;2023-07-16T00:43:40;147512.97;;;20.18;100.00
47530;BME280;33272;51.922;7.730;2023-07-16T00:46:08;147511.66;;;20.17;100.00
47530;BME280;33272;51.922;7.730;2023-07-16T00:48:37;147510.38;;;20.17;100.00
47530;BME280;33272;51.922;7.730;2023-07-16T00:51:04;147505.31;;;20.14;100.00
47530;BME280;33272;51.922;7.730;2023-07-16T00:53:32;147506.56;;;20.15;100.00
47530;BME280;33272;51.922;7.730;2023-07-16T00:55:59;147497.66;;;20.11;100.00
47530;BME280;33272;51.922;7.730;2023-07-16T00:58:26;147505.31;;;20.14;100.00
47530;BME280;33272;51.922;7.730;2023-07-16T01:00:53;147501.44;;;20.13;100.00
47530;BME280;33272;51.922;7.730;2023-07-16T01:03:20;147505.31;;;20.14;100.00
47530;BME280;33272;51.922;7.730;2023-07-16T01:05:57;147505.31;;;20.14;100.00
47530;BME280;33272;51.922;7.730;2023-07-16T01:08:32;147504.00;;;20.14;100.00
47530;BME280;33272;51.922;7.730;2023-07-16T01:11:02;147493.78;;;20.10;100.00
47530;BME280;33272;51.922;7.730;2023-07-16T01:13:29;147481.00;;;20.05;100.00
47530;BME280;33272;51.922;7.730;2023-07-16T01:15:57;147470.81;;;20.01;100.00
47530;BME280;33272;51.922;7.730;2023-07-16T01:18:24;147458.06;;;19.96;100.00
47530;BME280;33272;51.922;7.730;2023-07-16T01:20:53;147446.53;;;19.91;100.00
47530;BME280;33272;51.922;7.730;2023-07-16T01:24:05;147427.41;;;19.83;100.00
47530;BME280;33272;51.922;7.730;2023-07-16T01:27:17;147417.16;;;19.79;100.00
47530;BME280;33272;51.922;7.730;2023-07-16T01:29:49;147422.28;;;19.81;100.00
47530;BME280;33272;51.922;7.730;2023-07-16T01:32:17;147417.16;;;19.79;100.00
47530;BME280;33272;51.922;7.730;2023-07-16T01:34:44;147403.16;;;19.74;100.00
47530;BME280;33272;51.922;7.730;2023-07-16T01:37:12;147381.44;;;19.65;100.00
47530;BME280;33272;51.922;7.730;2023-07-16T01:39:39;147371.19;;;19.61;100.00
47530;BME280;33272;51.922;7.730;2023-07-16T01:42:06;147352.03;;;19.53;100.00
47530;BME280;33272;51.922;7.730;2023-07-16T01:44:33;147325.22;;;19.42;100.00
47530;BME280;33272;51.922;7.730;2023-07-16T01:47:09;147308.66;;;19.36;100.00
47530;BME280;33272;51.922;7.730;2023-07-16T01:49:36;147292.00;;;19.29;100.00
47530;BME280;33272;51.922;7.730;2023-07-16T01:52:05;147290.75;;;19.29;100.00
47530;BME280;33272;51.922;7.730;2023-07-16T01:54:33;147294.59;;;19.30;100.00
47530;BME280;33272;51.922;7.730;2023-07-16T01:56:59;147308.66;;;19.36;100.00
47530;BME280;33272;51.922;7.730;2023-07-16T01:59:27;147317.56;;;19.39;100.00
47530;BME280;33272;51.922;7.730;2023-07-16T02:01:54;147323.97;;;19.42;100.00
47530;BME280;33272;51.922;7.730;2023-07-16T02:04:22;147321.38;;;19.41;100.00
47530;BME280;33272;51.922;7.730;2023-07-16T02:06:49;147325.22;;;19.42;100.00
47530;BME280;33272;51.922;7.730;2023-07-16T02:09:16;147322.66;;;19.41;100.00
47530;BME280;33272;51.922;7.730;2023-07-16T02:11:43;147315.00;;;19.38;100.00
47530;BME280;33272;51.922;7.730;2023-07-16T02:14:10;147299.66;;;19.32;100.00
47530;BME280;33272;51.922;7.730;2023-07-16T02:16:37;147279.28;;;19.24;100.00
47530;BME280;33272;51.922;7.730;2023-07-16T02:19:04;147260.13;;;19.16;100.00
47530;BME280;33272;51.922;7.730;2023-07-16T02:21:32;147239.72;;;19.08;100.00
47530;BME280;33272;51.922;7.730;2023-07-16T02:23:59;147218.03;;;18.99;100.00
47530;BME280;33272;51.922;7.730;2023-07-16T02:26:26;147203.97;;;18.94;100.00
47530;BME280;33272;51.922;7.730;2023-07-16T02:28:53;147189.94;;;18.88;100.00
47530;BME280;33272;51.922;7.730;2023-07-16T02:31:20;147181.00;;;18.85;100.00
47530;BME280;33272;51.922;7.730;2023-07-16T02:33:47;147158.03;;;18.75;100.00
47530;BME280;33272;51.922;7.730;2023-07-16T02:36:14;147136.34;;;18.67;100.00
47530;BME280;33272;51.922;7.730;2023-07-16T02:38:42;147131.22;;;18.65;100.00
47530;BME280;33272;51.922;7.730;2023-07-16T02:41:09;147126.09;;;18.63;100.00
47530;BME280;33272;51.922;7.730;2023-07-16T02:43:36;147119.75;;;18.60;100.00
47530;BME280;33272;51.922;7.730;2023-07-16T02:46:03;147122.28;;;18.61;100.00
47530;BME280;33272;51.922;7.730;2023-07-16T02:48:30;147129.94;;;18.64;100.00
47530;BME280;33272;51.922;7.730;2023-07-16T02:50:57;147135.06;;;18.66;100.00
47530;BME280;33272;51.922;7.730;2023-07-16T02:53:24;147140.13;;;18.68;100.00
47530;BME280;33272;51.922;7.730;2023-07-16T02:55:52;147137.59;;;18.67;100.00
47530;BME280;33272;51.922;7.730;2023-07-16T02:58:19;147135.06;;;18.66;100.00
47530;BME280;33272;51.922;7.730;2023-07-16T03:00:46;147117.19;;;18.59;100.00
47530;BME280;33272;51.922;7.730;2023-07-16T03:03:13;147104.44;;;18.54;100.00
47530;BME280;33272;51.922;7.730;2023-07-16T03:05:40;147091.69;;;18.49;100.00
47530;BME280;33272;51.922;7.730;2023-07-16T03:08:07;147071.25;;;18.41;100.00
47530;BME280;33272;51.922;7.730;2023-07-16T03:10:34;147055.94;;;18.35;100.00
47530;BME280;33272;51.922;7.730;2023-07-16T03:13:02;147040.69;;;18.28;100.00
47530;BME280;33272;51.922;7.730;2023-07-16T03:15:29;147030.44;;;18.24;100.00
47530;BME280;33272;51.922;7.730;2023-07-16T03:17:56;147019.00;;;18.20;100.00
47530;BME280;33272;51.922;7.730;2023-07-16T03:20:23;147001.16;;;18.13;100.00
47530;BME280;33272;51.922;7.730;2023-07-16T03:22:50;146993.50;;;18.10;100.00
47530;BME280;33272;51.922;7.730;2023-07-16T03:25:17;146989.66;;;18.08;100.00
47530;BME280;33272;51.922;7.730;2023-07-16T03:27:45;146971.81;;;18.01;100.00
47530;BME280;33272;51.922;7.730;2023-07-16T03:30:14;146959.03;;;17.96;100.00
47530;BME280;33272;51.922;7.730;2023-07-16T03:32:41;146956.50;;;17.95;100.00
47530;BME280;33272;51.922;7.730;2023-07-16T03:35:09;146946.31;;;17.91;100.00
47530;BME280;33272;51.922;7.730;2023-07-16T03:37:36;146945.00;;;17.90;100.00
47530;BME280;33272;51.922;7.730;2023-07-16T03:40:13;146947.59;;;17.91;100.00
47530;BME280;33272;51.922;7.730;2023-07-16T03:42:41;146947.59;;;17.91;100.00
47530;BME280;33272;51.922;7.730;2023-07-16T03:45:09;146948.88;;;17.92;100.00
47530;BME280;33272;51.922;7.730;2023-07-16T03:47:39;146943.75;;;17.90;100.00
47530;BME280;33272;51.922;7.730;2023-07-16T03:50:07;146945.00;;;17.90;100.00
47530;BME280;33272;51.922;7.730;2023-07-16T03:52:35;146947.59;;;17.91;100.00
47530;BME280;33272;51.922;7.730;2023-07-16T03:55:02;146941.22;;;17.89;100.00
47530;BME280;33272;51.922;7.730;2023-07-16T03:57:29;146946.31;;;17.91;100.00
47530;BME280;33272;51.922;7.730;2023-07-16T03:59:56;146962.91;;;17.97;100.00
47530;BME280;33272;51.922;7.730;2023-07-16T04:02:24;146975.63;;;18.02;100.00
47530;BME280;33272;51.922;7.730;2023-07-16T04:04:53;146980.72;;;18.04;100.00
47530;BME280;33272;51.922;7.730;2023-07-16T04:07:20;146988.38;;;18.08;100.00
47530;BME280;33272;51.922;7.730;2023-07-16T04:09:47;146994.78;;;18.10;100.00
47530;BME280;33272;51.922;7.730;2023-07-16T04:12:14;147007.50;;;18.15;100.00
47530;BME280;33272;51.922;7.730;2023-07-16T04:14:41;147013.88;;;18.18;100.00
47530;BME280;33272;51.922;7.730;2023-07-16T04:17:08;147027.91;;;18.23;100.00
47530;BME280;33272;51.922;7.730;2023-07-16T04:19:35;147035.56;;;18.26;100.00
47530;BME280;33272;51.922;7.730;2023-07-16T04:22:04;147038.09;;;18.27;100.00
47530;BME280;33272;51.922;7.730;2023-07-16T04:24:31;147047.03;;;18.31;100.00
47530;BME280;33272;51.922;7.730;2023-07-16T04:26:58;147058.53;;;18.36;100.00
47530;BME280;33272;51.922;7.730;2023-07-16T04:29:25;147057.25;;;18.35;100.00
47530;BME280;33272;51.922;7.730;2023-07-16T04:31:52;147067.44;;;18.39;100.00
47530;BME280;33272;51.922;7.730;2023-07-16T04:34:19;147119.75;;;18.60;100.00
47530;BME280;33272;51.922;7.730;2023-07-16T04:36:46;147150.38;;;18.72;100.00
47530;BME280;33272;51.922;7.730;2023-07-16T04:39:15;147169.53;;;18.80;100.00
47530;BME280;33272;51.922;7.730;2023-07-16T04:41:42;147164.41;;;18.78;100.00
47530;BME280;33272;51.922;7.730;2023-07-16T04:44:08;147188.66;;;18.88;100.00
47530;BME280;33272;51.922;7.730;2023-07-16T04:46:35;147211.63;;;18.97;100.00
47530;BME280;33272;51.922;7.730;2023-07-16T04:49:04;147225.69;;;19.03;100.00
47530;BME280;33272;51.922;7.730;2023-07-16T04:51:31;147248.66;;;19.12;100.00
47530;BME280;33272;51.922;7.730;2023-07-16T04:53:58;147258.84;;;19.16;100.00
47530;BME280;33272;51.922;7.730;2023-07-16T04:56:27;147272.88;;;19.21;100.00
47530;BME280;33272;51.922;7.730;2023-07-16T04:58:54;147283.09;;;19.26;100.00
47530;BME280;33272;51.922;7.730;2023-07-16T05:01:21;147278.00;;;19.24;100.00
47530;BME280;33272;51.922;7.730;2023-07-16T05:03:48;147292.00;;;19.29;100.00
47530;BME280;33272;51.922;7.730;2023-07-16T05:06:15;147308.66;;;19.36;100.00
47530;BME280;33272;51.922;7.730;2023-07-16T05:08:42;147283.09;;;19.26;100.00
47530;BME280;33272;51.922;7.730;2023-07-16T05:11:09;147280.56;;;19.25;100.00
47530;BME280;33272;51.922;7.730;2023-07-16T05:13:37;147301.00;;;19.33;100.00
47530;BME280;33272;51.922;7.730;2023-07-16T05:16:04;147335.44;;;19.47;100.00
47530;BME280;33272;51.922;7.730;2023-07-16T05:18:31;147343.09;;;19.50;100.00
47530;BME280;33272;51.922;7.730;2023-07-16T05:20:58;147359.69;;;19.56;100.00
47530;BME280;33272;51.922;7.730;2023-07-16T05:23:25;147367.34;;;19.59;100.00
47530;BME280;33272;51.922;7.730;2023-07-16T05:25:52;147380.19;;;19.64;100.00
47530;BME280;33272;51.922;7.730;2023-07-16T05:28:19;147378.84;;;19.64;100.00
47530;BME280;33272;51.922;7.730;2023-07-16T05:30:48;147359.69;;;19.56;100.00
47530;BME280;33272;51.922;7.730;2023-07-16T05:33:23;147378.84;;;19.64;100.00
47530;BME280;33272;51.922;7.730;2023-07-16T05:35:50;147375.00;;;19.62;100.00
47530;BME280;33272;51.922;7.730;2023-07-16T05:38:17;147424.81;;;19.82;100.00
47530;BME280;33272;51.922;7.730;2023-07-16T05:40:44;147504.00;;;20.14;100.00
47530;BME280;33272;51.922;7.730;2023-07-16T05:43:11;147579.38;;;20.44;97.90
47530;BME280;33272;51.922;7.730;2023-07-16T05:45:39;147703.34;;;20.94;98.20
47530;BME280;33272;51.922;7.730;2023-07-16T05:48:07;147781.31;;;21.25;95.99
47530;BME280;33272;51.922;7.730;2023-07-16T05:50:34;147873.38;;;21.62;93.17
47530;BME280;33272;51.922;7.730;2023-07-16T05:53:01;147845.28;;;21.50;83.17
47530;BME280;33272;51.922;7.730;2023-07-16T05:55:28;147883.63;;;21.66;91.04
47530;BME280;33272;51.922;7.730;2023-07-16T05:57:55;147948.84;;;21.92;90.50
47530;BME280;33272;51.922;7.730;2023-07-16T06:00:22;148055.00;;;22.34;87.44
47530;BME280;33272;51.922;7.730;2023-07-16T06:02:49;148104.94;;;22.54;83.49
47530;BME280;33272;51.922;7.730;2023-07-16T06:05:17;148179.13;;;22.84;85.79
47530;BME280;33272;51.922;7.730;2023-07-16T06:07:44;148130.50;;;22.64;86.34
47530;BME280;33272;51.922;7.730;2023-07-16T06:10:12;148206.03;;;22.95;86.05
47530;BME280;33272;51.922;7.730;2023-07-16T06:12:39;148179.13;;;22.84;85.49
47530;BME280;33272;51.922;7.730;2023-07-16T06:15:07;148253.38;;;23.13;84.05
47530;BME280;33272;51.922;7.730;2023-07-16T06:17:34;148275.13;;;23.22;82.54
47530;BME280;33272;51.922;7.730;2023-07-16T06:20:03;148263.63;;;23.18;81.25
47530;BME280;33272;51.922;7.730;2023-07-16T06:22:31;148291.78;;;23.29;83.78
47530;BME280;33272;51.922;7.730;2023-07-16T06:24:58;148266.19;;;23.19;81.98
47530;BME280;33272;51.922;7.730;2023-07-16T06:27:26;148179.13;;;22.84;81.62
47530;BME280;33272;51.922;7.730;2023-07-16T06:29:53;148186.78;;;22.87;79.67
47530;BME280;33272;51.922;7.730;2023-07-16T06:32:20;148157.34;;;22.75;78.71
47530;BME280;33272;51.922;7.730;2023-07-16T06:34:47;148097.25;;;22.51;76.39
47530;BME280;33272;51.922;7.730;2023-07-16T06:37:14;148134.31;;;22.66;79.28
47530;BME280;33272;51.922;7.730;2023-07-16T06:39:42;148209.88;;;22.96;72.98
47530;BME280;33272;51.922;7.730;2023-07-16T06:42:09;148221.38;;;23.01;77.47
47530;BME280;33272;51.922;7.730;2023-07-16T06:44:36;148225.25;;;23.02;76.28
47530;BME280;33272;51.922;7.730;2023-07-16T06:47:04;148254.69;;;23.14;74.57
47530;BME280;33272;51.922;7.730;2023-07-16T06:49:31;148340.41;;;23.48;72.38
47530;BME280;33272;51.922;7.730;2023-07-16T06:52:00;148298.19;;;23.31;74.38
47530;BME280;33272;51.922;7.730;2023-07-16T06:54:27;148307.13;;;23.35;74.40
47530;BME280;33272;51.922;7.730;2023-07-16T06:56:56;148264.91;;;23.18;72.86
47530;BME280;33272;51.922;7.730;2023-07-16T06:59:23;148190.63;;;22.88;74.59
47530;BME280;33272;51.922;7.730;2023-07-16T07:01:50;148248.28;;;23.11;74.68
47530;BME280;33272;51.922;7.730;2023-07-16T07:04:17;148258.50;;;23.16;74.11
47530;BME280;33272;51.922;7.730;2023-07-16T07:06:44;148255.97;;;23.15;73.54
47530;BME280;33272;51.922;7.730;2023-07-16T07:09:10;148138.19;;;22.67;73.86
47530;BME280;33272;51.922;7.730;2023-07-16T07:11:37;148240.59;;;23.08;74.01
47530;BME280;33272;51.922;7.730;2023-07-16T07:14:06;148296.91;;;23.31;71.04
47530;BME280;33272;51.922;7.730;2023-07-16T07:16:33;148293.03;;;23.29;72.57
47530;BME280;33272;51.922;7.730;2023-07-16T07:19:00;148248.28;;;23.11;72.23
47530;BME280;33272;51.922;7.730;2023-07-16T07:21:28;148173.97;;;22.82;70.99
47530;BME280;33272;51.922;7.730;2023-07-16T07:23:55;148142.00;;;22.69;72.94
47530;BME280;33272;51.922;7.730;2023-07-16T07:26:22;148185.53;;;22.86;71.46
47530;BME280;33272;51.922;7.730;2023-07-16T07:28:49;148142.00;;;22.69;70.59
47530;BME280;33272;51.922;7.730;2023-07-16T07:31:17;148216.28;;;22.99;71.48
47530;BME280;33272;51.922;7.730;2023-07-16T07:33:44;148158.63;;;22.76;69.52
47530;BME280;33272;51.922;7.730;2023-07-16T07:36:11;148193.19;;;22.89;71.52
47530;BME280;33272;51.922;7.730;2023-07-16T07:38:38;148167.63;;;22.79;71.46
47530;BME280;33272;51.922;7.730;2023-07-16T07:41:05;148185.53;;;22.86;71.22
47530;BME280;33272;51.922;7.730;2023-07-16T07:43:32;148232.91;;;23.05;70.16
47530;BME280;33272;51.922;7.730;2023-07-16T07:45:59;148261.06;;;23.17;70.31
47530;BME280;33272;51.922;7.730;2023-07-16T07:48:28;148213.69;;;22.98;68.31
47530;BME280;33272;51.922;7.730;2023-07-16T07:50:55;148213.69;;;22.98;69.94
47530;BME280;33272;51.922;7.730;2023-07-16T07:53:21;148185.53;;;22.86;68.06
47530;BME280;33272;51.922;7.730;2023-07-16T07:55:48;148234.19;;;23.06;69.33
47530;BME280;33272;51.922;7.730;2023-07-16T07:58:15;148325.03;;;23.42;67.79
47530;BME280;33272;51.922;7.730;2023-07-16T08:00:42;148275.13;;;23.22;67.15
47530;BME280;33272;51.922;7.730;2023-07-16T08:03:09;148305.88;;;23.34;67.82
47530;BME280;33272;51.922;7.730;2023-07-16T08:05:38;148263.63;;;23.18;67.81
47530;BME280;33272;51.922;7.730;2023-07-16T08:08:05;148184.25;;;22.86;69.87
47530;BME280;33272;51.922;7.730;2023-07-16T08:10:32;148170.16;;;22.80;68.50
47530;BME280;33272;51.922;7.730;2023-07-16T08:12:59;148189.34;;;22.88;68.43
47530;BME280;33272;51.922;7.730;2023-07-16T08:15:26;148136.91;;;22.67;69.18
47530;BME280;33272;51.922;7.730;2023-07-16T08:17:53;148097.25;;;22.51;67.95
47530;BME280;33272;51.922;7.730;2023-07-16T08:20:21;148040.94;;;22.29;66.04
47530;BME280;33272;51.922;7.730;2023-07-16T08:22:50;148080.56;;;22.44;67.33
47530;BME280;33272;51.922;7.730;2023-07-16T08:25:17;148070.34;;;22.40;67.74
47530;BME280;33272;51.922;7.730;2023-07-16T08:27:44;148143.28;;;22.70;67.61
47530;BME280;33272;51.922;7.730;2023-07-16T08:30:11;148188.06;;;22.87;67.27
47530;BME280;33272;51.922;7.730;2023-07-16T08:32:38;148121.56;;;22.61;65.85
47530;BME280;33272;51.922;7.730;2023-07-16T08:35:07;148158.63;;;22.76;67.74
47530;BME280;33272;51.922;7.730;2023-07-16T08:37:37;148131.78;;;22.65;68.13
47530;BME280;33272;51.922;7.730;2023-07-16T08:40:08;148185.53;;;22.86;67.27
47530;BME280;33272;51.922;7.730;2023-07-16T08:42:36;148221.38;;;23.01;66.50
47530;BME280;33272;51.922;7.730;2023-07-16T08:45:07;148208.59;;;22.96;63.75
47530;BME280;33272;51.922;7.730;2023-07-16T08:47:36;148177.84;;;22.83;63.96
47530;BME280;33272;51.922;7.730;2023-07-16T08:50:04;148162.50;;;22.77;66.05
47530;BME280;33272;51.922;7.730;2023-07-16T08:52:31;148181.66;;;22.85;63.85
47530;BME280;33272;51.922;7.730;2023-07-16T08:54:58;148175.25;;;22.82;64.60
47530;BME280;33272;51.922;7.730;2023-07-16T08:57:27;148223.97;;;23.02;63.41
47530;BME280;33272;51.922;7.730;2023-07-16T08:59:55;148243.16;;;23.09;62.34
47530;BME280;33272;51.922;7.730;2023-07-16T09:02:23;148263.63;;;23.18;62.71
47530;BME280;33272;51.922;7.730;2023-07-16T09:04:50;148207.34;;;22.95;65.00
47530;BME280;33272;51.922;7.730;2023-07-16T09:07:18;148217.56;;;22.99;64.05
47530;BME280;33272;51.922;7.730;2023-07-16T09:09:55;148277.69;;;23.23;63.80
47530;BME280;33272;51.922;7.730;2023-07-16T09:12:26;148367.31;;;23.59;63.79
47530;BME280;33272;51.922;7.730;2023-07-16T09:14:55;148387.78;;;23.67;63.51
47530;BME280;33272;51.922;7.730;2023-07-16T09:17:22;148401.94;;;23.73;61.92
47530;BME280;33272;51.922;7.730;2023-07-16T09:19:50;148432.66;;;23.85;59.75
47530;BME280;33272;51.922;7.730;2023-07-16T09:22:18;148473.63;;;24.01;57.82
47530;BME280;33272;51.922;7.730;2023-07-16T09:24:45;148439.06;;;23.88;59.49
47530;BME280;33272;51.922;7.730;2023-07-16T09:27:13;148463.41;;;23.97;59.58
47530;BME280;33272;51.922;7.730;2023-07-16T09:29:42;148459.53;;;23.96;57.98
47530;BME280;33272;51.922;7.730;2023-07-16T09:32:09;148446.75;;;23.91;57.57
47530;BME280;33272;51.922;7.730;2023-07-16T09:34:36;148422.44;;;23.81;57.58
47530;BME280;33272;51.922;7.730;2023-07-16T09:37:05;148399.38;;;23.72;55.98
47530;BME280;33272;51.922;7.730;2023-07-16T09:39:33;148405.78;;;23.74;58.71
47530;BME280;33272;51.922;7.730;2023-07-16T09:42:02;148405.78;;;23.74;58.40
47530;BME280;33272;51.922;7.730;2023-07-16T09:44:30;148439.06;;;23.88;57.80
47530;BME280;33272;51.922;7.730;2023-07-16T09:46:59;148441.63;;;23.89;57.47
47530;BME280;33272;51.922;7.730;2023-07-16T09:49:28;148462.13;;;23.97;57.11
47530;BME280;33272;51.922;7.730;2023-07-16T09:51:57;148423.69;;;23.81;56.92
47530;BME280;33272;51.922;7.730;2023-07-16T09:54:26;148424.97;;;23.82;58.06
47530;BME280;33272;51.922;7.730;2023-07-16T09:57:00;148437.81;;;23.87;58.11
47530;BME280;33272;51.922;7.730;2023-07-16T09:59:30;148471.09;;;24.00;58.01
47530;BME280;33272;51.922;7.730;2023-07-16T10:02:00;148455.72;;;23.94;57.21
47530;BME280;33272;51.922;7.730;2023-07-16T10:04:38;148431.38;;;23.85;54.86
47530;BME280;33272;51.922;7.730;2023-07-16T10:07:06;148419.84;;;23.80;57.41
47530;BME280;33272;51.922;7.730;2023-07-16T10:09:38;148433.94;;;23.86;55.36
47530;BME280;33272;51.922;7.730;2023-07-16T10:12:13;148375.00;;;23.62;55.87
47530;BME280;33272;51.922;7.730;2023-07-16T10:14:42;148409.59;;;23.76;56.78
47530;BME280;33272;51.922;7.730;2023-07-16T10:17:15;148387.78;;;23.67;55.35
47530;BME280;33272;51.922;7.730;2023-07-16T10:19:56;148454.44;;;23.94;56.04
47530;BME280;33272;51.922;7.730;2023-07-16T10:22:32;148453.16;;;23.93;54.81
47530;BME280;33272;51.922;7.730;2023-07-16T10:25:00;148481.31;;;24.04;56.95
47530;BME280;33272;51.922;7.730;2023-07-16T10:27:32;148526.16;;;24.22;56.41
47530;BME280;33272;51.922;7.730;2023-07-16T10:30:00;148572.28;;;24.41;54.39
47530;BME280;33272;51.922;7.730;2023-07-16T10:32:31;148632.50;;;24.65;54.92
47530;BME280;33272;51.922;7.730;2023-07-16T10:34:59;148529.97;;;24.24;54.49
47530;BME280;33272;51.922;7.730;2023-07-16T10:37:26;148506.91;;;24.15;54.73
47530;BME280;33272;51.922;7.730;2023-07-16T10:39:55;148581.28;;;24.44;54.57
47530;BME280;33272;51.922;7.730;2023-07-16T10:42:24;148629.97;;;24.64;54.59
47530;BME280;33272;51.922;7.730;2023-07-16T10:44:52;148615.84;;;24.58;54.14
47530;BME280;33272;51.922;7.730;2023-07-16T10:47:24;148544.06;;;24.29;53.75
47530;BME280;33272;51.922;7.730;2023-07-16T10:49:52;148631.22;;;24.64;54.05
47530;BME280;33272;51.922;7.730;2023-07-16T10:52:21;148685.06;;;24.86;52.87
47530;BME280;33272;51.922;7.730;2023-07-16T10:54:48;148747.84;;;25.11;52.33
47530;BME280;33272;51.922;7.730;2023-07-16T10:57:16;148735.03;;;25.06;52.33
47530;BME280;33272;51.922;7.730;2023-07-16T10:59:45;148708.13;;;24.95;52.67
47530;BME280;33272;51.922;7.730;2023-07-16T11:02:16;148655.56;;;24.74;52.48
47530;BME280;33272;51.922;7.730;2023-07-16T11:04:45;148699.16;;;24.91;52.95
47530;BME280;33272;51.922;7.730;2023-07-16T11:07:15;148728.66;;;25.03;53.18
47530;BME280;33272;51.922;7.730;2023-07-16T11:09:43;148790.19;;;25.28;50.92
47530;BME280;33272;51.922;7.730;2023-07-16T11:12:12;148835.06;;;25.46;52.08
47530;BME280;33272;51.922;7.730;2023-07-16T11:14:43;148810.72;;;25.36;50.64
47530;BME280;33272;51.922;7.730;2023-07-16T11:17:12;148747.84;;;25.11;52.19
47530;BME280;33272;51.922;7.730;2023-07-16T11:19:41;148677.38;;;24.83;52.07
47530;BME280;33272;51.922;7.730;2023-07-16T11:22:12;148682.50;;;24.85;52.11
47530;BME280;33272;51.922;7.730;2023-07-16T11:24:42;148628.69;;;24.63;52.15
47530;BME280;33272;51.922;7.730;2023-07-16T11:27:17;148528.69;;;24.23;51.35
47530;BME280;33272;51.922;7.730;2023-07-16T11:29:46;148537.66;;;24.27;52.48
47530;BME280;33272;51.922;7.730;2023-07-16T11:32:25;148495.41;;;24.10;52.60
47530;BME280;33272;51.922;7.730;2023-07-16T11:34:52;148527.44;;;24.23;52.04
47530;BME280;33272;51.922;7.730;2023-07-16T11:37:22;148536.38;;;24.26;53.20
47530;BME280;33272;51.922;7.730;2023-07-16T11:39:49;148546.63;;;24.31;52.84
47530;BME280;33272;51.922;7.730;2023-07-16T11:42:23;148544.06;;;24.29;51.90
47530;BME280;33272;51.922;7.730;2023-07-16T11:44:50;148577.41;;;24.43;52.36
47530;BME280;33272;51.922;7.730;2023-07-16T11:47:17;148629.97;;;24.64;52.28
47530;BME280;33272;51.922;7.730;2023-07-16T11:49:44;148622.28;;;24.61;52.22
47530;BME280;33272;51.922;7.730;2023-07-16T11:52:11;148571.00;;;24.40;51.61
47530;BME280;33272;51.922;7.730;2023-07-16T11:54:40;148590.25;;;24.48;52.23
47530;BME280;33272;51.922;7.730;2023-07-16T11:57:07;148565.88;;;24.38;52.74
47530;BME280;33272;51.922;7.730;2023-07-16T11:59:34;148546.63;;;24.31;52.54
47530;BME280;33272;51.922;7.730;2023-07-16T12:02:01;148549.22;;;24.32;52.09
47530;BME280;33272;51.922;7.730;2023-07-16T12:04:29;148544.06;;;24.29;52.27
47530;BME280;33272;51.922;7.730;2023-07-16T12:06:56;148554.31;;;24.34;51.68
47530;BME280;33272;51.922;7.730;2023-07-16T12:09:23;148508.25;;;24.15;52.60
47530;BME280;33272;51.922;7.730;2023-07-16T12:11:51;148576.16;;;24.42;52.56
47530;BME280;33272;51.922;7.730;2023-07-16T12:14:18;148677.38;;;24.83;52.06
47530;BME280;33272;51.922;7.730;2023-07-16T12:16:45;148764.56;;;25.17;51.24
47530;BME280;33272;51.922;7.730;2023-07-16T12:19:12;148824.81;;;25.41;51.24
47530;BME280;33272;51.922;7.730;2023-07-16T12:21:39;148877.34;;;25.62;50.95
47530;BME280;33272;51.922;7.730;2023-07-16T12:24:06;148841.47;;;25.48;50.71
47530;BME280;33272;51.922;7.730;2023-07-16T12:26:33;148797.88;;;25.31;50.94
47530;BME280;33272;51.922;7.730;2023-07-16T12:29:03;148836.34;;;25.46;50.95
47530;BME280;33272;51.922;7.730;2023-07-16T12:31:30;148810.72;;;25.36;51.21
47530;BME280;33272;51.922;7.730;2023-07-16T12:33:58;148854.28;;;25.53;50.63
47530;BME280;33272;51.922;7.730;2023-07-16T12:36:27;148831.19;;;25.44;50.39
47530;BME280;33272;51.922;7.730;2023-07-16T12:38:54;148844.03;;;25.49;50.81
47530;BME280;33272;51.922;7.730;2023-07-16T12:41:21;148855.59;;;25.54;50.87
47530;BME280;33272;51.922;7.730;2023-07-16T12:43:49;148897.88;;;25.71;49.58
47530;BME280;33272;51.922;7.730;2023-07-16T12:46:17;148956.91;;;25.94;50.71
47530;BME280;33272;51.922;7.730;2023-07-16T12:48:44;149003.06;;;26.12;49.44
47530;BME280;33272;51.922;7.730;2023-07-16T12:51:11;149049.25;;;26.31;49.86